createdAt,value
2017-11-03T00:00:15.414Z,48.40
2017-11-03T00:05:51.903Z,41.60
2017-11-03T00:08:25.037Z,39.80
2017-11-03T00:10:59.280Z,39.90
2017-11-03T00:13:33.704Z,41.80
2017-11-03T00:16:07.325Z,41.10
2017-11-03T00:18:40.063Z,41.77
2017-11-03T00:21:12.782Z,44.60
2017-11-03T00:23:45.101Z,44.07
2017-11-03T00:26:17.906Z,45.70
2017-11-03T00:28:49.887Z,43.20
2017-11-03T00:31:22.128Z,42.60
2017-11-03T00:33:54.084Z,44.60
2017-11-03T00:36:27.729Z,43.90
2017-11-03T00:39:05.705Z,45.37
2017-11-03T00:41:40.094Z,52.23
2017-11-03T00:44:13.122Z,52.60
2017-11-03T00:46:45.739Z,47.80
2017-11-03T00:49:17.376Z,47.00
2017-11-03T00:51:50.785Z,47.60
2017-11-03T00:54:24.122Z,49.20
2017-11-03T00:56:59.133Z,49.30
2017-11-03T00:59:30.944Z,47.47
2017-11-03T01:02:06.190Z,45.00
2017-11-03T01:04:40.566Z,43.50
2017-11-03T01:07:14.699Z,38.87
2017-11-03T01:09:46.664Z,37.40
2017-11-03T01:12:18.583Z,27.53
2017-11-03T01:14:51.538Z,31.67
2017-11-03T01:17:23.847Z,32.20
2017-11-03T01:19:54.928Z,31.60
2017-11-03T01:22:26.951Z,34.50
2017-11-03T01:24:59.181Z,36.63
2017-11-03T01:27:32.031Z,36.30
2017-11-03T01:30:04.780Z,37.80
2017-11-03T01:32:37.545Z,33.73
2017-11-03T01:35:09.825Z,32.27
2017-11-03T01:37:43.020Z,34.17
2017-11-03T01:40:16.689Z,30.00
2017-11-03T01:42:48.707Z,30.63
2017-11-03T01:45:20.412Z,30.87
2017-11-03T01:47:52.136Z,32.87
2017-11-03T01:50:24.767Z,31.23
2017-11-03T01:52:58.088Z,31.80
2017-11-03T01:55:30.807Z,32.37
2017-11-03T01:58:04.205Z,32.80
2017-11-03T02:00:36.477Z,33.10
2017-11-03T02:03:13.662Z,33.60
2017-11-03T02:05:45.400Z,34.23
2017-11-03T02:08:17.332Z,34.23
2017-11-03T02:10:49.216Z,35.10
2017-11-03T02:13:20.482Z,35.37
2017-11-03T02:16:01.450Z,33.40
2017-11-03T02:18:35.728Z,34.23
2017-11-03T02:21:10.620Z,35.50
2017-11-03T02:23:46.297Z,30.30
2017-11-03T02:26:19.462Z,24.00
2017-11-03T02:28:53.931Z,21.63
2017-11-03T02:31:26.074Z,23.47
2017-11-03T02:33:58.065Z,29.90
2017-11-03T02:36:30.002Z,30.90
2017-11-03T02:39:04.938Z,31.70
2017-11-03T02:41:36.748Z,36.27
2017-11-03T02:44:11.023Z,35.50
2017-11-03T02:46:43.866Z,36.97
2017-11-03T02:49:18.100Z,37.60
2017-11-03T02:51:49.891Z,40.27
2017-11-03T02:54:21.767Z,40.10
2017-11-03T02:56:53.479Z,39.20
2017-11-03T02:59:25.263Z,38.83
2017-11-03T03:01:57.026Z,39.03
2017-11-03T03:04:29.043Z,36.93
2017-11-03T03:07:05.994Z,33.77
2017-11-03T03:09:40.200Z,32.37
2017-11-03T03:12:13.661Z,28.50
2017-11-03T03:14:48.015Z,26.53
2017-11-03T03:20:11.783Z,31.47
2017-11-03T03:22:46.034Z,30.07
2017-11-03T03:25:20.710Z,31.00
2017-11-03T03:27:55.004Z,34.97
2017-11-03T03:30:29.986Z,42.90
2017-11-03T03:33:04.527Z,44.73
2017-11-03T03:35:36.749Z,35.30
2017-11-03T03:38:09.913Z,37.87
2017-11-03T03:40:58.012Z,42.57
2017-11-03T03:43:29.291Z,34.90
2017-11-03T03:46:01.610Z,34.73
2017-11-03T03:48:37.926Z,32.17
2017-11-03T03:51:15.371Z,32.80
2017-11-03T03:53:49.262Z,32.10
2017-11-03T03:56:22.210Z,28.60
2017-11-03T03:58:54.293Z,27.47
2017-11-03T04:01:26.271Z,27.37
2017-11-03T04:03:58.221Z,27.37
2017-11-03T04:06:30.463Z,28.17
2017-11-03T04:09:04.497Z,29.77
2017-11-03T04:11:36.635Z,28.53
2017-11-03T04:14:09.404Z,34.07
2017-11-03T04:16:40.684Z,32.73
2017-11-03T04:19:12.600Z,29.50
2017-11-03T04:21:45.626Z,29.00
2017-11-03T04:24:17.741Z,31.37
2017-11-03T04:26:53.023Z,33.40
2017-11-03T04:29:25.314Z,34.27
2017-11-03T04:31:57.629Z,36.87
2017-11-03T04:34:30.100Z,33.80
2017-11-03T04:37:08.792Z,43.50
2017-11-03T04:39:44.478Z,38.77
2017-11-03T04:42:23.149Z,42.80
2017-11-03T04:44:58.295Z,43.73
2017-11-03T04:47:32.323Z,40.07
2017-11-03T04:50:04.471Z,37.70
2017-11-03T04:52:36.376Z,39.60
2017-11-03T04:55:08.549Z,37.57
2017-11-03T04:57:40.389Z,38.43
2017-11-03T05:00:14.515Z,39.90
2017-11-03T05:02:48.365Z,45.53
2017-11-03T05:05:21.885Z,43.07
2017-11-03T05:07:53.715Z,38.83
2017-11-03T05:10:24.913Z,37.93
2017-11-03T05:12:56.664Z,41.27
2017-11-03T05:15:28.420Z,39.40
2017-11-03T05:18:00.008Z,39.93
2017-11-03T05:20:30.571Z,36.83
2017-11-03T05:23:01.667Z,33.60
2017-11-03T05:25:33.197Z,38.07
2017-11-03T05:28:04.678Z,37.77
2017-11-03T05:30:35.955Z,41.00
2017-11-03T05:33:07.692Z,50.43
2017-11-03T05:35:43.456Z,28.43
2017-11-03T05:38:15.707Z,28.57
2017-11-03T05:40:48.205Z,28.40
2017-11-03T05:43:20.395Z,26.77
2017-11-03T05:45:52.954Z,27.67
2017-11-03T05:48:25.771Z,36.67
2017-11-03T05:50:58.538Z,80.77
2017-11-03T05:53:31.073Z,55.83
2017-11-03T05:56:03.310Z,86.33
2017-11-03T05:58:35.012Z,57.33
2017-11-03T06:01:17.155Z,52.87
2017-11-03T06:03:50.640Z,74.63
2017-11-03T06:06:22.842Z,81.77
2017-11-03T06:08:55.340Z,69.63
2017-11-03T06:11:27.377Z,101.43
2017-11-03T06:13:59.486Z,106.37
2017-11-03T06:16:32.786Z,102.53
2017-11-03T06:19:08.133Z,99.37
2017-11-03T06:21:40.350Z,90.17
2017-11-03T06:24:14.060Z,82.57
2017-11-03T06:26:45.412Z,84.80
2017-11-03T06:29:17.933Z,80.07
2017-11-03T06:31:50.610Z,88.83
2017-11-03T06:34:22.794Z,90.90
2017-11-03T06:36:53.945Z,82.67
2017-11-03T06:39:25.360Z,86.63
2017-11-03T06:41:57.465Z,72.67
2017-11-03T06:44:30.725Z,59.90
2017-11-03T06:47:04.969Z,65.47
2017-11-03T06:49:36.869Z,64.60
2017-11-03T06:52:29.018Z,50.90
2017-11-03T06:55:03.981Z,48.83
2017-11-03T06:57:36.918Z,49.00
2017-11-03T07:00:22.248Z,50.13
2017-11-03T07:02:54.760Z,50.83
2017-11-03T07:05:29.393Z,59.00
2017-11-03T07:08:05.930Z,53.77
2017-11-03T07:10:37.796Z,54.33
2017-11-03T07:13:21.621Z,51.97
2017-11-03T07:15:54.978Z,46.50
2017-11-03T07:18:31.518Z,47.37
2017-11-03T07:21:06.541Z,46.00
2017-11-03T07:23:39.550Z,41.47
2017-11-03T07:26:17.395Z,34.50
2017-11-03T07:28:49.598Z,32.53
2017-11-03T07:31:21.808Z,32.00
2017-11-03T07:33:55.186Z,31.40
2017-11-03T07:36:36.860Z,31.70
2017-11-03T07:39:20.963Z,29.60
2017-11-03T07:41:53.657Z,28.77
2017-11-03T07:44:24.708Z,29.20
2017-11-03T07:46:56.400Z,30.40
2017-11-03T07:49:30.602Z,30.13
2017-11-03T07:52:06.271Z,25.63
2017-11-03T07:54:42.313Z,27.43
2017-11-03T07:57:17.641Z,28.77
2017-11-03T07:59:51.407Z,28.90
2017-11-03T08:02:23.433Z,30.67
2017-11-03T08:05:03.109Z,26.97
2017-11-03T08:07:35.092Z,27.30
2017-11-03T08:10:15.267Z,27.10
2017-11-03T08:12:47.224Z,25.37
2017-11-03T08:15:22.155Z,24.80
2017-11-03T08:17:56.652Z,25.60
2017-11-03T08:20:27.561Z,26.77
2017-11-03T08:23:00.300Z,25.10
2017-11-03T08:25:33.166Z,24.67
2017-11-03T08:28:07.827Z,25.23
2017-11-03T08:30:44.174Z,26.17
2017-11-03T08:33:15.872Z,26.40
2017-11-03T08:35:52.958Z,25.60
2017-11-03T08:38:26.859Z,24.87
2017-11-03T08:40:59.830Z,24.60
2017-11-03T08:43:31.136Z,24.77
2017-11-03T08:46:09.441Z,25.40
2017-11-03T08:48:42.983Z,25.20
2017-11-03T08:51:22.712Z,24.33
2017-11-03T08:53:58.408Z,25.60
2017-11-03T08:56:29.252Z,24.30
2017-11-03T08:59:08.469Z,24.80
2017-11-03T09:01:40.300Z,23.27
2017-11-03T09:04:15.521Z,24.50
2017-11-03T09:06:48.552Z,25.90
2017-11-03T09:09:20.409Z,24.53
2017-11-03T09:11:51.843Z,24.13
2017-11-03T09:14:23.065Z,21.80
2017-11-03T09:16:55.067Z,22.10
2017-11-03T09:19:27.656Z,21.17
2017-11-03T09:21:59.963Z,22.53
2017-11-03T09:24:32.793Z,20.80
2017-11-03T09:27:17.369Z,19.27
2017-11-03T09:29:49.579Z,19.50
2017-11-03T09:32:31.532Z,19.77
2017-11-03T09:35:12.211Z,19.30
2017-11-03T09:37:46.403Z,18.93
2017-11-03T09:40:18.627Z,18.63
2017-11-03T09:42:52.684Z,19.77
2017-11-03T09:45:25.440Z,18.10
2017-11-03T09:47:58.332Z,18.73
2017-11-03T09:50:31.192Z,19.00
2017-11-03T09:53:08.050Z,20.77
2017-11-03T09:55:43.703Z,20.87
2017-11-03T09:58:15.150Z,20.90
2017-11-03T10:00:46.951Z,20.37
2017-11-03T10:03:20.544Z,19.40
2017-11-03T10:05:53.201Z,21.10
2017-11-03T10:08:24.274Z,19.50
2017-11-03T10:10:55.491Z,20.60
2017-11-03T10:13:27.633Z,19.67
2017-11-03T10:15:58.757Z,18.30
2017-11-03T10:18:31.060Z,19.03
2017-11-03T10:21:26.726Z,18.80
2017-11-03T10:24:01.671Z,19.70
2017-11-03T10:26:34.843Z,20.60
2017-11-03T10:29:13.036Z,19.80
2017-11-03T10:31:45.050Z,20.87
2017-11-03T10:34:19.024Z,21.60
2017-11-03T10:37:07.134Z,21.43
2017-11-03T10:39:39.413Z,20.93
2017-11-03T10:42:16.825Z,21.40
2017-11-03T10:44:47.905Z,20.97
2017-11-03T10:47:25.538Z,18.53
2017-11-03T10:49:57.576Z,19.50
2017-11-03T10:52:30.101Z,20.90
2017-11-03T10:55:03.268Z,20.90
2017-11-03T10:57:34.815Z,22.20
2017-11-03T11:00:22.131Z,19.93
2017-11-03T11:02:54.499Z,20.40
2017-11-03T11:05:26.389Z,18.20
2017-11-03T11:07:57.680Z,18.70
2017-11-03T11:10:31.453Z,18.83
2017-11-03T11:13:09.591Z,19.50
2017-11-03T11:15:40.087Z,19.83
2017-11-03T11:18:12.096Z,20.13
2017-11-03T11:20:42.664Z,19.67
2017-11-03T11:23:18.639Z,20.20
2017-11-03T11:25:49.969Z,19.43
2017-11-03T11:28:21.658Z,19.60
2017-11-03T11:30:52.333Z,19.50
2017-11-03T11:33:26.436Z,19.53
2017-11-03T11:35:57.900Z,19.33
2017-11-03T11:38:30.979Z,20.07
2017-11-03T11:41:12.691Z,19.00
2017-11-03T11:43:48.204Z,21.17
2017-11-03T11:46:23.773Z,20.50
2017-11-03T11:48:54.860Z,20.93
2017-11-03T11:51:28.750Z,22.00
2017-11-03T11:54:05.036Z,21.07
2017-11-03T11:56:38.317Z,22.73
2017-11-03T11:59:10.013Z,20.40
2017-11-03T12:01:41.872Z,20.93
2017-11-03T12:04:15.256Z,21.57
2017-11-03T12:06:46.321Z,22.33
2017-11-03T12:09:17.033Z,21.30
2017-11-03T12:11:50.972Z,21.30
2017-11-03T12:14:28.399Z,23.00
2017-11-03T12:17:20.615Z,24.00
2017-11-03T12:20:09.753Z,24.57
2017-11-03T12:22:45.301Z,22.60
2017-11-03T12:25:20.677Z,23.20
2017-11-03T12:27:53.132Z,24.60
2017-11-03T12:30:25.049Z,21.70
2017-11-03T12:32:56.744Z,22.60
2017-11-03T12:35:30.727Z,21.00
2017-11-03T12:38:12.950Z,21.07
2017-11-03T12:40:47.286Z,24.13
2017-11-03T12:43:21.658Z,22.93
2017-11-03T12:49:28.720Z,24.77
2017-11-03T12:52:01.770Z,22.57
2017-11-03T12:57:20.776Z,22.47
2017-11-03T12:59:58.771Z,24.43
2017-11-03T13:02:34.509Z,24.10
2017-11-03T13:05:08.974Z,23.20
2017-11-03T13:07:43.924Z,23.90
2017-11-03T13:10:22.975Z,25.20
2017-11-03T13:12:56.340Z,25.50
2017-11-03T13:15:31.545Z,26.03
2017-11-03T13:18:21.045Z,27.27
2017-11-03T13:20:52.614Z,27.57
2017-11-03T13:23:23.983Z,25.43
2017-11-03T13:25:58.913Z,26.77
2017-11-03T13:28:30.675Z,26.50
2017-11-03T13:31:05.805Z,27.00
2017-11-03T13:33:43.060Z,27.10
2017-11-03T13:36:16.216Z,23.77
2017-11-03T13:38:49.053Z,25.70
2017-11-03T13:41:21.424Z,27.77
2017-11-03T13:43:54.576Z,29.07
2017-11-03T13:46:28.085Z,26.90
2017-11-03T13:49:03.354Z,28.40
2017-11-03T13:51:39.404Z,29.03
2017-11-03T13:54:14.265Z,30.57
2017-11-03T13:56:46.656Z,30.27
2017-11-03T13:59:18.966Z,29.60
2017-11-03T14:01:52.287Z,31.93
2017-11-03T14:04:23.656Z,30.17
2017-11-03T14:06:55.604Z,28.60
2017-11-03T14:09:26.216Z,27.30
2017-11-03T14:11:59.686Z,29.00
2017-11-03T14:14:33.612Z,30.17
2017-11-03T14:17:11.969Z,30.80
2017-11-03T14:19:42.464Z,29.47
2017-11-03T14:22:13.861Z,29.90
2017-11-03T14:24:46.429Z,29.77
2017-11-03T14:27:18.478Z,29.63
2017-11-03T14:29:52.893Z,29.80
2017-11-03T14:32:27.700Z,31.43
2017-11-03T14:35:17.542Z,30.50
2017-11-03T14:37:59.699Z,31.47
2017-11-03T14:40:39.407Z,30.17
2017-11-03T14:43:15.073Z,30.73
2017-11-03T14:45:49.971Z,29.90
2017-11-03T14:48:26.025Z,29.50
2017-11-03T15:05:34.245Z,30.50
2017-11-03T15:08:04.248Z,31.80
2017-11-03T15:10:33.873Z,30.27
2017-11-03T15:13:11.525Z,30.30
2017-11-03T15:15:40.754Z,30.60
2017-11-03T15:22:25.813Z,30.17
2017-11-03T15:31:37.401Z,28.67
2017-11-03T15:34:21.589Z,30.20
2017-11-03T15:36:55.319Z,30.40
2017-11-03T15:39:31.832Z,32.10
2017-11-03T15:42:07.164Z,31.00
2017-11-03T15:44:40.185Z,30.00
2017-11-03T15:47:21.979Z,30.17
2017-11-03T15:49:55.349Z,31.40
2017-11-03T15:52:31.174Z,32.07
2017-11-03T15:55:21.320Z,30.03
2017-11-03T15:57:55.057Z,31.40
2017-11-03T16:00:30.745Z,32.70
2017-11-03T16:03:08.000Z,33.17
2017-11-03T16:05:42.939Z,29.97
2017-11-03T16:08:19.216Z,30.80
2017-11-03T16:10:56.981Z,31.00
2017-11-03T16:13:31.940Z,29.03
2017-11-03T16:16:37.869Z,29.53
2017-11-03T16:19:20.695Z,27.93
2017-11-03T16:21:55.921Z,25.67
2017-11-03T16:24:26.671Z,28.00
2017-11-03T16:26:57.764Z,28.13
2017-11-03T16:29:31.387Z,26.60
2017-11-03T16:32:12.368Z,27.40
2017-11-03T16:34:46.832Z,26.67
2017-11-03T16:37:26.067Z,27.07
2017-11-03T16:39:59.255Z,27.30
2017-11-03T16:42:34.305Z,27.10
2017-11-03T16:45:16.056Z,28.80
2017-11-03T16:47:47.691Z,30.07
2017-11-03T16:50:25.021Z,31.17
2017-11-03T16:53:08.873Z,32.00
2017-11-03T16:55:45.989Z,32.53
2017-11-03T16:58:19.699Z,36.27
2017-11-03T17:00:53.348Z,39.27
2017-11-03T17:03:29.143Z,35.97
2017-11-03T17:06:01.954Z,34.30
2017-11-03T17:08:35.349Z,31.20
2017-11-03T17:11:19.243Z,39.90
2017-11-03T17:13:51.573Z,37.53
2017-11-03T17:16:25.059Z,37.50
2017-11-03T17:18:57.322Z,40.47
2017-11-03T17:21:31.989Z,46.47
2017-11-03T17:24:17.429Z,37.60
2017-11-03T17:26:53.155Z,35.03
2017-11-03T17:29:26.206Z,37.97
2017-11-03T17:32:05.558Z,38.93
2017-11-03T17:34:39.433Z,35.97
2017-11-03T17:37:24.024Z,42.20
2017-11-03T17:39:57.011Z,41.87
2017-11-03T17:42:30.569Z,35.97
2017-11-03T17:45:11.749Z,33.07
2017-11-03T17:47:50.263Z,31.80
2017-11-03T17:50:21.821Z,31.67
2017-11-03T17:52:54.011Z,36.43
2017-11-03T17:55:25.280Z,40.97
2017-11-03T17:57:59.404Z,37.30
2017-11-03T18:00:34.916Z,40.20
2017-11-03T18:03:18.961Z,37.30
2017-11-03T18:05:50.581Z,37.77
2017-11-03T18:08:21.643Z,32.83
2017-11-03T18:10:55.406Z,41.43
2017-11-03T18:13:27.103Z,47.17
2017-11-03T18:15:57.536Z,33.20
2017-11-03T18:18:30.783Z,48.00
2017-11-03T18:21:12.472Z,34.60
2017-11-03T18:23:46.578Z,44.50
2017-11-03T18:26:46.004Z,43.57
2017-11-03T18:29:19.130Z,30.57
2017-11-03T18:31:50.676Z,25.37
2017-11-03T18:37:22.244Z,28.27
2017-11-03T18:40:14.958Z,28.57
2017-11-03T18:42:45.623Z,49.23
2017-11-03T18:45:21.292Z,46.50
2017-11-03T18:47:55.039Z,28.27
2017-11-03T18:50:26.901Z,23.77
2017-11-03T18:52:57.708Z,28.03
2017-11-03T18:55:33.638Z,21.97
2017-11-03T18:58:08.986Z,25.80
2017-11-03T19:00:41.396Z,43.97
2017-11-03T19:03:29.285Z,51.33
2017-11-03T19:06:05.869Z,62.90
2017-11-03T19:08:38.134Z,47.43
2017-11-03T19:11:22.113Z,40.77
2017-11-03T19:16:54.650Z,55.80
2017-11-03T19:19:29.602Z,33.50
2017-11-03T19:22:07.303Z,51.57
2017-11-03T19:24:42.746Z,55.20
2017-11-03T19:27:19.559Z,55.37
2017-11-03T19:29:53.149Z,64.87
2017-11-03T19:32:25.641Z,64.00
2017-11-03T19:34:58.481Z,52.43
2017-11-03T19:37:30.690Z,45.30
2017-11-03T19:40:14.910Z,55.23
2017-11-03T19:42:47.083Z,43.07
2017-11-03T19:45:20.980Z,65.50
2017-11-03T19:47:56.021Z,52.00
2017-11-03T19:50:27.951Z,82.43
2017-11-03T19:53:00.791Z,63.70
2017-11-03T19:55:32.635Z,94.27
2017-11-03T19:58:17.781Z,64.53
2017-11-03T20:00:51.336Z,63.03
2017-11-03T20:03:22.984Z,65.30
2017-11-03T20:06:13.604Z,50.70
2017-11-03T20:08:46.170Z,67.07
2017-11-03T20:11:24.411Z,58.53
2017-11-03T20:13:59.545Z,62.27
2017-11-03T20:16:34.813Z,64.93
2017-11-03T20:19:22.129Z,54.17
2017-11-03T20:22:00.514Z,90.20
2017-11-03T20:24:34.755Z,73.83
2017-11-03T20:27:15.199Z,72.83
2017-11-03T20:29:48.229Z,65.33
2017-11-03T20:32:20.759Z,89.03
2017-11-03T20:34:52.425Z,75.03
2017-11-03T20:37:25.464Z,70.53
2017-11-03T20:39:57.410Z,97.57
2017-11-03T20:42:30.894Z,50.87
2017-11-03T20:45:05.399Z,92.10
2017-11-03T20:47:41.514Z,68.17
2017-11-03T20:50:15.846Z,88.83
2017-11-03T20:52:49.101Z,100.70
2017-11-03T20:55:33.207Z,83.80
2017-11-03T20:58:07.137Z,91.57
2017-11-03T21:00:38.100Z,77.37
2017-11-03T21:03:26.927Z,75.43
2017-11-03T21:06:04.335Z,89.37
2017-11-03T21:08:37.391Z,108.37
2017-11-03T21:11:16.689Z,114.27
2017-11-03T21:13:49.779Z,74.57
2017-11-03T21:16:24.067Z,71.77
2017-11-03T21:18:56.798Z,65.23
2017-11-03T21:21:31.957Z,77.10
2017-11-03T21:24:10.598Z,100.57
2017-11-03T21:26:42.562Z,83.83
2017-11-03T21:29:24.793Z,72.63
2017-11-03T21:31:57.456Z,89.50
2017-11-03T21:34:30.041Z,86.00
2017-11-03T21:37:04.711Z,77.80
2017-11-03T21:39:37.145Z,57.47
2017-11-03T21:42:14.314Z,57.63
2017-11-03T21:44:48.409Z,60.83
2017-11-03T21:47:20.206Z,61.83
2017-11-03T21:49:54.919Z,57.43
2017-11-03T21:52:28.250Z,63.37
2017-11-03T21:55:00.314Z,63.80
2017-11-03T21:57:32.925Z,78.20
2017-11-03T22:00:11.324Z,73.93
2017-11-03T22:02:44.145Z,74.10
2017-11-03T22:05:20.459Z,62.07
2017-11-03T22:07:52.907Z,77.80
2017-11-03T22:10:27.526Z,96.60
2017-11-03T22:13:04.958Z,81.97
2017-11-03T22:15:36.653Z,58.13
2017-11-03T22:18:14.414Z,70.47
2017-11-03T22:20:46.434Z,73.80
2017-11-03T22:23:30.978Z,77.20
2017-11-03T22:26:10.890Z,75.70
2017-11-03T22:28:46.646Z,108.03
2017-11-03T22:31:19.315Z,101.00
2017-11-03T22:33:52.198Z,79.43
2017-11-03T22:36:24.654Z,61.93
2017-11-03T22:38:57.785Z,76.10
2017-11-03T22:41:31.289Z,74.20
2017-11-03T22:44:07.651Z,58.40
2017-11-03T22:46:40.195Z,65.27
2017-11-03T22:49:20.663Z,71.50
2017-11-03T22:51:53.043Z,89.47
2017-11-03T22:54:26.905Z,85.50
2017-11-03T22:56:58.264Z,74.57
2017-11-03T22:59:31.013Z,58.20
2017-11-03T23:02:06.222Z,58.10
2017-11-03T23:04:37.990Z,57.07
2017-11-03T23:07:24.072Z,59.87
2017-11-03T23:09:54.309Z,49.70
2017-11-03T23:12:25.886Z,62.47
2017-11-03T23:14:58.109Z,84.83
2017-11-03T23:17:32.063Z,115.70
2017-11-03T23:20:06.450Z,61.50
2017-11-03T23:22:37.384Z,91.90
2017-11-03T23:25:21.883Z,89.97
2017-11-03T23:27:53.063Z,57.37
2017-11-03T23:30:24.170Z,56.63
2017-11-03T23:32:56.210Z,61.83
2017-11-03T23:35:31.919Z,51.90
2017-11-03T23:38:05.477Z,53.57
2017-11-03T23:40:37.164Z,57.33
2017-11-03T23:43:15.971Z,89.03
2017-11-03T23:45:48.555Z,57.97
2017-11-03T23:48:23.842Z,57.73
2017-11-03T23:50:57.345Z,51.53
2017-11-03T23:53:29.049Z,56.67
2017-11-03T23:56:02.948Z,57.27
2017-11-03T23:58:36.395Z,73.70
